createdAt,value
2023-01-27T00:00:29.677Z,10.50
2023-01-27T00:01:28.128Z,8.50
2023-01-27T00:02:02.500Z,9.90
2023-01-27T00:02:38.441Z,10.00
2023-01-27T00:03:17.295Z,9.70
2023-01-27T00:03:56.684Z,10.10
2023-01-27T00:04:30.468Z,9.50
2023-01-27T00:05:22.749Z,9.90
2023-01-27T00:06:15.900Z,10.10
2023-01-27T00:07:25.663Z,9.60
2023-01-27T00:08:18.386Z,9.60
2023-01-27T00:09:17.771Z,9.50
2023-01-27T00:10:34.496Z,9.00
2023-01-27T00:11:46.237Z,9.00
2023-01-27T00:12:53.103Z,8.30
2023-01-27T00:14:01.759Z,8.20
2023-01-27T00:15:19.733Z,8.10
2023-01-27T00:16:29.582Z,7.80
2023-01-27T00:18:16.656Z,6.90
2023-01-27T00:19:06.378Z,8.80
2023-01-27T00:19:45.419Z,8.50
2023-01-27T00:20:58.154Z,8.70
2023-01-27T00:21:58.475Z,7.60
2023-01-27T00:22:57.493Z,8.20
2023-01-27T00:24:02.946Z,8.30
2023-01-27T00:24:58.452Z,6.00
2023-01-27T00:26:15.144Z,7.80
2023-01-27T00:27:03.665Z,7.50
2023-01-27T00:28:00.591Z,8.30
2023-01-27T00:30:29.092Z,7.50
2023-01-27T00:31:39.135Z,7.40
2023-01-27T00:32:46.837Z,8.10
2023-01-27T00:33:39.408Z,7.60
2023-01-27T00:34:28.707Z,7.30
2023-01-27T00:35:21.001Z,7.40
2023-01-27T00:37:31.282Z,7.00
2023-01-27T00:39:14.348Z,7.30
2023-01-27T00:41:07.518Z,7.00
2023-01-27T00:43:06.957Z,6.90
2023-01-27T00:43:57.741Z,7.60
2023-01-27T00:45:09.353Z,7.70
2023-01-27T00:46:08.459Z,7.60
2023-01-27T00:46:58.645Z,7.10
2023-01-27T00:47:57.895Z,6.90
2023-01-27T00:48:58.862Z,6.50
2023-01-27T00:49:59.908Z,7.70
2023-01-27T00:51:28.670Z,6.60
2023-01-27T00:52:38.023Z,6.80
2023-01-27T00:53:30.708Z,6.80
2023-01-27T00:54:18.510Z,6.80
2023-01-27T00:55:08.546Z,6.70
2023-01-27T00:56:03.654Z,7.40
2023-01-27T00:57:10.612Z,7.40
2023-01-27T00:57:57.705Z,7.40
2023-01-27T00:58:58.710Z,7.40
2023-01-27T00:59:40.244Z,7.40
2023-01-27T01:03:40.180Z,6.90
2023-01-27T01:04:50.623Z,6.80
2023-01-27T01:06:38.013Z,6.30
2023-01-27T01:08:29.986Z,5.80
2023-01-27T01:09:11.361Z,5.80
2023-01-27T01:11:04.780Z,6.70
2023-01-27T01:11:46.018Z,7.40
2023-01-27T01:12:43.404Z,7.80
2023-01-27T01:13:28.806Z,7.80
2023-01-27T01:15:09.713Z,6.90
2023-01-27T01:16:14.446Z,7.60
2023-01-27T01:17:58.275Z,7.80
2023-01-27T01:18:35.800Z,8.10
2023-01-27T01:19:44.839Z,7.40
2023-01-27T01:20:40.884Z,7.40
2023-01-27T01:21:41.194Z,8.00
2023-01-27T01:22:41.384Z,8.10
2023-01-27T01:23:40.021Z,7.80
2023-01-27T01:24:25.824Z,7.70
2023-01-27T01:25:08.233Z,7.40
2023-01-27T01:26:30.394Z,7.30
2023-01-27T01:27:26.327Z,8.30
2023-01-27T01:28:15.300Z,7.50
2023-01-27T01:29:11.149Z,7.90
2023-01-27T01:29:58.669Z,8.00
2023-01-27T01:31:11.207Z,7.90
2023-01-27T01:31:55.741Z,7.70
2023-01-27T01:32:45.255Z,8.00
2023-01-27T01:33:39.687Z,8.60
2023-01-27T01:34:26.923Z,8.20
2023-01-27T01:35:14.694Z,8.00
2023-01-27T01:35:59.931Z,8.30
2023-01-27T01:36:47.456Z,8.50
2023-01-27T01:37:33.668Z,8.30
2023-01-27T01:38:28.598Z,7.80
2023-01-27T01:39:15.703Z,7.90
2023-01-27T01:39:55.901Z,9.20
2023-01-27T01:40:56.340Z,8.40
2023-01-27T01:41:34.541Z,8.10
2023-01-27T01:43:30.287Z,8.00
2023-01-27T01:44:30.112Z,8.70
2023-01-27T01:45:29.352Z,8.70
2023-01-27T01:46:13.697Z,8.60
2023-01-27T01:47:17.489Z,8.60
2023-01-27T01:48:27.711Z,8.30
2023-01-27T01:49:06.912Z,8.00
2023-01-27T01:50:27.069Z,9.00
2023-01-27T01:51:22.307Z,8.70
2023-01-27T01:52:25.619Z,7.90
2023-01-27T01:53:17.893Z,8.70
2023-01-27T01:54:31.321Z,8.60
2023-01-27T01:55:12.140Z,8.20
2023-01-27T01:56:19.890Z,8.30
2023-01-27T01:57:23.134Z,9.00
2023-01-27T01:58:28.686Z,8.60
2023-01-27T01:59:37.823Z,8.40
2023-01-27T02:00:47.210Z,9.30
2023-01-27T02:01:36.585Z,8.40
2023-01-27T02:02:33.433Z,8.20
2023-01-27T02:03:30.782Z,8.40
2023-01-27T02:05:39.582Z,8.60
2023-01-27T02:06:30.822Z,8.80
2023-01-27T02:07:36.252Z,8.80
2023-01-27T02:08:46.439Z,8.40
2023-01-27T02:09:39.823Z,9.10
2023-01-27T02:10:29.528Z,8.60
2023-01-27T02:11:15.831Z,9.00
2023-01-27T02:12:14.037Z,9.60
2023-01-27T02:13:04.045Z,9.50
2023-01-27T02:13:56.755Z,8.90
2023-01-27T02:14:36.759Z,10.00
2023-01-27T02:15:27.664Z,9.50
2023-01-27T02:16:14.421Z,9.20
2023-01-27T02:17:08.051Z,9.20
2023-01-27T02:17:49.750Z,9.00
2023-01-27T02:18:36.154Z,9.40
2023-01-27T02:20:01.304Z,9.80
2023-01-27T02:21:10.380Z,8.40
2023-01-27T02:21:58.628Z,8.30
2023-01-27T02:23:30.656Z,8.50
2023-01-27T02:24:15.497Z,8.20
2023-01-27T02:25:10.244Z,8.50
2023-01-27T02:26:31.555Z,8.70
2023-01-27T02:27:25.040Z,8.20
2023-01-27T02:28:28.878Z,9.10
2023-01-27T02:29:15.127Z,8.60
2023-01-27T02:30:36.623Z,8.00
2023-01-27T02:31:13.206Z,8.20
2023-01-27T02:32:34.160Z,9.10
2023-01-27T02:33:14.068Z,8.90
2023-01-27T02:33:56.364Z,9.00
2023-01-27T02:34:39.592Z,8.70
2023-01-27T02:35:38.495Z,9.30
2023-01-27T02:36:25.172Z,8.90
2023-01-27T02:37:16.249Z,8.70
2023-01-27T02:38:03.311Z,9.80
2023-01-27T02:39:47.687Z,8.30
2023-01-27T02:40:32.825Z,8.60
2023-01-27T02:41:30.299Z,8.70
2023-01-27T02:42:17.836Z,8.70
2023-01-27T02:43:09.740Z,9.70
2023-01-27T02:43:43.827Z,9.40
2023-01-27T02:44:27.588Z,9.40
2023-01-27T02:45:27.635Z,8.70
2023-01-27T02:46:14.016Z,8.60
2023-01-27T02:46:55.146Z,9.00
2023-01-27T02:47:50.607Z,8.60
2023-01-27T02:48:34.563Z,8.50
2023-01-27T02:52:16.466Z,7.80
2023-01-27T02:53:02.578Z,7.50
2023-01-27T02:53:37.108Z,8.10
2023-01-27T02:54:31.693Z,8.20
2023-01-27T02:55:16.943Z,9.10
2023-01-27T02:56:10.860Z,8.40
2023-01-27T02:56:56.290Z,8.40
2023-01-27T02:57:39.074Z,8.50
2023-01-27T02:58:41.918Z,8.00
2023-01-27T02:59:35.234Z,8.50
2023-01-27T03:00:33.501Z,8.50
2023-01-27T03:01:15.409Z,8.10
2023-01-27T03:02:32.934Z,8.40
2023-01-27T03:03:25.731Z,7.50
2023-01-27T03:05:25.903Z,6.80
2023-01-27T03:06:10.831Z,7.30
2023-01-27T03:07:43.649Z,7.40
2023-01-27T03:08:26.732Z,7.40
2023-01-27T03:09:03.661Z,7.20
2023-01-27T03:09:48.054Z,7.20
2023-01-27T03:10:28.363Z,7.70
2023-01-27T03:11:35.362Z,8.50
2023-01-27T03:12:29.633Z,8.00
2023-01-27T03:13:22.384Z,8.70
2023-01-27T03:14:08.756Z,8.40
2023-01-27T03:15:10.161Z,8.20
2023-01-27T03:16:14.771Z,7.90
2023-01-27T03:17:25.615Z,7.70
2023-01-27T03:18:33.237Z,8.10
2023-01-27T03:19:08.715Z,7.80
2023-01-27T03:20:26.361Z,8.20
2023-01-27T03:21:11.967Z,7.60
2023-01-27T03:22:00.443Z,7.80
2023-01-27T03:22:47.894Z,8.30
2023-01-27T03:23:50.804Z,8.40
2023-01-27T03:24:39.349Z,7.80
2023-01-27T03:25:30.744Z,7.80
2023-01-27T03:26:15.997Z,7.00
2023-01-27T03:27:00.771Z,7.30
2023-01-27T03:28:03.224Z,7.50
2023-01-27T03:29:17.413Z,7.20
2023-01-27T03:29:57.774Z,7.60
2023-01-27T03:31:09.704Z,7.70
2023-01-27T03:32:10.482Z,8.00
2023-01-27T03:33:15.367Z,8.40
2023-01-27T03:34:28.835Z,7.90
2023-01-27T03:35:25.718Z,7.80
2023-01-27T03:36:24.877Z,8.30
2023-01-27T03:37:24.427Z,7.90
2023-01-27T03:38:29.715Z,8.20
2023-01-27T03:39:59.001Z,7.30
2023-01-27T03:41:12.933Z,7.90
2023-01-27T03:42:10.323Z,8.00
2023-01-27T03:43:28.375Z,7.90
2023-01-27T03:44:28.411Z,7.60
2023-01-27T03:45:25.655Z,8.00
2023-01-27T03:46:24.342Z,7.90
2023-01-27T03:47:16.741Z,8.40
2023-01-27T03:47:59.262Z,7.80
2023-01-27T03:48:44.288Z,8.00
2023-01-27T03:49:40.034Z,8.10
2023-01-27T03:50:40.359Z,7.80
2023-01-27T03:51:31.411Z,7.70
2023-01-27T03:52:13.198Z,8.10
2023-01-27T03:53:24.398Z,7.40
2023-01-27T03:54:07.317Z,6.80
2023-01-27T03:54:44.523Z,7.80
2023-01-27T03:55:29.939Z,7.70
2023-01-27T03:56:16.121Z,7.80
2023-01-27T03:56:59.403Z,7.80
2023-01-27T03:57:40.487Z,7.80
2023-01-27T03:58:39.370Z,7.90
2023-01-27T03:59:31.778Z,7.20
2023-01-27T04:00:30.183Z,7.50
2023-01-27T04:01:15.762Z,8.40
2023-01-27T04:02:30.935Z,7.70
2023-01-27T04:03:42.049Z,6.70
2023-01-27T04:04:37.288Z,7.60
2023-01-27T04:05:37.703Z,6.90
2023-01-27T04:07:14.122Z,6.60
2023-01-27T04:08:08.378Z,6.20
2023-01-27T04:09:07.691Z,5.60
2023-01-27T04:09:54.931Z,6.30
2023-01-27T04:10:35.100Z,6.00
2023-01-27T04:11:31.850Z,6.40
2023-01-27T04:12:27.051Z,6.20
2023-01-27T04:13:07.558Z,6.40
2023-01-27T04:13:46.703Z,6.20
2023-01-27T04:14:43.467Z,6.60
2023-01-27T04:15:24.409Z,6.30
2023-01-27T04:16:15.279Z,6.20
2023-01-27T04:17:04.486Z,6.70
2023-01-27T04:17:57.156Z,6.00
2023-01-27T04:18:38.577Z,6.70
2023-01-27T04:19:26.845Z,7.20
2023-01-27T04:20:28.802Z,6.90
2023-01-27T04:21:19.377Z,6.80
2023-01-27T04:22:10.601Z,6.70
2023-01-27T04:22:45.876Z,7.10
2023-01-27T04:23:31.833Z,6.60
2023-01-27T04:24:36.750Z,7.40
2023-01-27T04:25:16.282Z,6.60
2023-01-27T04:26:26.720Z,6.30
2023-01-27T04:27:28.917Z,7.60
2023-01-27T04:28:29.057Z,6.30
2023-01-27T04:29:12.060Z,6.50
2023-01-27T04:31:18.179Z,6.80
2023-01-27T04:32:10.615Z,7.40
2023-01-27T04:32:55.688Z,7.00
2023-01-27T04:33:47.828Z,7.30
2023-01-27T04:34:42.074Z,6.70
2023-01-27T04:35:23.347Z,8.00
2023-01-27T04:35:59.678Z,7.60
2023-01-27T04:36:44.317Z,7.40
2023-01-27T04:37:26.255Z,8.30
2023-01-27T04:38:07.440Z,8.70
2023-01-27T04:38:43.327Z,8.10
2023-01-27T04:39:26.463Z,8.30
2023-01-27T04:40:06.238Z,7.60
2023-01-27T04:40:57.534Z,8.10
2023-01-27T04:41:43.563Z,8.50
2023-01-27T04:42:31.179Z,7.70
2023-01-27T04:43:29.438Z,7.80
2023-01-27T04:44:14.022Z,8.00
2023-01-27T04:44:57.393Z,7.70
2023-01-27T04:45:31.768Z,8.10
2023-01-27T04:46:35.324Z,7.60
2023-01-27T04:47:16.058Z,7.70
2023-01-27T04:48:15.535Z,7.70
2023-01-27T04:48:56.683Z,7.80
2023-01-27T04:49:30.640Z,8.30
2023-01-27T04:50:31.503Z,7.90
2023-01-27T04:51:12.594Z,8.00
2023-01-27T04:51:55.900Z,8.00
2023-01-27T04:52:30.105Z,7.60
2023-01-27T04:53:15.317Z,8.50
2023-01-27T04:53:49.269Z,8.10
2023-01-27T04:54:35.126Z,8.30
2023-01-27T04:55:14.689Z,8.20
2023-01-27T04:57:16.221Z,6.80
2023-01-27T04:58:00.267Z,7.50
2023-01-27T04:58:34.944Z,7.30
2023-01-27T04:59:26.894Z,8.50
2023-01-27T05:00:03.486Z,8.00
2023-01-27T05:01:07.923Z,7.80
2023-01-27T05:01:44.204Z,8.00
2023-01-27T05:02:22.300Z,7.90
2023-01-27T05:03:03.336Z,8.50
2023-01-27T05:03:44.294Z,8.70
2023-01-27T05:04:19.403Z,8.00
2023-01-27T05:04:58.799Z,7.70
2023-01-27T05:05:46.347Z,7.80
2023-01-27T05:06:39.473Z,8.10
2023-01-27T05:07:15.869Z,7.10
2023-01-27T05:08:14.214Z,7.60
2023-01-27T05:10:16.445Z,6.80
2023-01-27T05:10:58.667Z,6.80
2023-01-27T05:11:34.733Z,7.60
2023-01-27T05:12:14.201Z,8.10
2023-01-27T05:12:53.316Z,8.10
2023-01-27T05:13:37.026Z,8.40
2023-01-27T05:14:15.370Z,7.70
2023-01-27T05:14:58.756Z,7.90
2023-01-27T05:15:37.164Z,8.40
2023-01-27T05:16:30.649Z,8.00
2023-01-27T05:17:10.811Z,7.30
2023-01-27T05:17:46.644Z,6.90
2023-01-27T05:18:28.152Z,7.40
2023-01-27T05:19:09.138Z,7.50
2023-01-27T05:19:47.015Z,7.30
2023-01-27T05:20:36.572Z,7.60
2023-01-27T05:21:28.516Z,7.30
2023-01-27T05:22:11.637Z,7.60
2023-01-27T05:22:48.701Z,7.70
2023-01-27T05:23:37.620Z,7.90
2023-01-27T05:24:14.444Z,8.30
2023-01-27T05:24:48.043Z,8.60
2023-01-27T05:25:27.589Z,8.30
2023-01-27T05:26:17.530Z,8.30
2023-01-27T05:26:58.913Z,8.00
2023-01-27T05:27:32.572Z,8.70
2023-01-27T05:28:09.659Z,8.60
2023-01-27T05:28:45.557Z,7.90
2023-01-27T05:29:29.313Z,8.30
2023-01-27T05:30:03.350Z,8.10
2023-01-27T05:30:39.497Z,8.10
2023-01-27T05:31:23.608Z,8.60
2023-01-27T05:31:57.812Z,8.20
2023-01-27T05:32:31.410Z,8.60
2023-01-27T05:33:08.575Z,8.30
2023-01-27T05:33:42.791Z,8.10
2023-01-27T05:34:17.070Z,9.00
2023-01-27T05:34:56.673Z,9.10
2023-01-27T05:35:35.446Z,8.30
2023-01-27T05:36:11.934Z,8.50
2023-01-27T05:36:46.530Z,8.80
2023-01-27T05:37:28.709Z,9.30
2023-01-27T05:38:04.596Z,8.60
2023-01-27T05:38:39.858Z,9.10
2023-01-27T05:39:13.645Z,9.10
2023-01-27T05:39:47.298Z,9.20
2023-01-27T05:40:29.745Z,9.40
2023-01-27T05:41:06.895Z,8.90
2023-01-27T05:41:40.942Z,9.10
2023-01-27T05:42:18.004Z,10.00
2023-01-27T05:43:18.102Z,8.70
2023-01-27T05:43:56.404Z,9.10
2023-01-27T05:44:32.726Z,9.90
2023-01-27T05:45:08.597Z,9.20
2023-01-27T05:45:42.284Z,9.50
2023-01-27T05:46:25.299Z,9.70
2023-01-27T05:46:59.194Z,9.20
2023-01-27T05:47:47.132Z,8.80
2023-01-27T05:48:27.678Z,9.40
2023-01-27T05:49:07.979Z,9.40
2023-01-27T05:49:41.660Z,9.20
2023-01-27T05:50:16.060Z,9.30
2023-01-27T05:51:04.429Z,9.60
2023-01-27T05:52:28.103Z,8.20
2023-01-27T05:52:46.691Z,8.30
2023-01-27T05:53:27.517Z,9.20
2023-01-27T05:54:06.743Z,8.70
2023-01-27T05:54:42.594Z,9.20
2023-01-27T05:55:17.842Z,9.00
2023-01-27T05:55:59.795Z,9.40
2023-01-27T05:56:39.504Z,9.20
2023-01-27T05:57:14.494Z,9.10
2023-01-27T05:57:48.390Z,9.60
2023-01-27T05:58:32.691Z,9.20
2023-01-27T05:59:08.440Z,9.00
2023-01-27T05:59:42.396Z,9.50
2023-01-27T06:00:27.748Z,10.00
2023-01-27T06:01:20.659Z,9.90
2023-01-27T06:02:02.818Z,8.70
2023-01-27T06:02:39.249Z,9.80
2023-01-27T06:04:30.112Z,9.90
2023-01-27T06:05:06.894Z,9.90
2023-01-27T06:05:56.713Z,9.20
2023-01-27T06:06:36.510Z,9.40
2023-01-27T06:07:10.157Z,11.50
2023-01-27T06:07:46.327Z,11.30
2023-01-27T06:08:27.699Z,10.70
2023-01-27T06:09:15.092Z,10.00
2023-01-27T06:09:58.940Z,9.50
2023-01-27T06:10:34.247Z,9.30
2023-01-27T06:11:10.588Z,9.50
2023-01-27T06:11:47.579Z,9.50
2023-01-27T06:12:28.069Z,9.40
2023-01-27T06:13:04.443Z,9.20
2023-01-27T06:13:41.960Z,8.80
2023-01-27T06:14:17.690Z,8.20
2023-01-27T06:15:05.381Z,8.50
2023-01-27T06:15:41.538Z,8.60
2023-01-27T06:16:18.390Z,8.80
2023-01-27T06:16:58.253Z,8.80
2023-01-27T06:17:31.839Z,9.40
2023-01-27T06:18:07.800Z,8.50
2023-01-27T06:18:44.254Z,9.10
2023-01-27T06:19:36.637Z,9.00
2023-01-27T06:20:33.998Z,8.60
2023-01-27T06:21:11.854Z,7.50
2023-01-27T06:21:46.930Z,8.40
2023-01-27T06:22:27.118Z,8.60
2023-01-27T06:23:06.988Z,8.70
2023-01-27T06:23:41.163Z,8.20
2023-01-27T06:24:15.048Z,8.90
2023-01-27T06:24:48.943Z,9.10
2023-01-27T06:25:26.580Z,9.80
2023-01-27T06:26:12.736Z,9.40
2023-01-27T06:26:46.459Z,8.60
2023-01-27T06:27:22.048Z,8.90
2023-01-27T06:28:01.675Z,8.90
2023-01-27T06:28:42.004Z,10.00
2023-01-27T06:29:17.658Z,10.10
2023-01-27T06:29:56.778Z,11.00
2023-01-27T06:30:30.512Z,10.50
2023-01-27T06:31:19.104Z,10.30
2023-01-27T06:32:02.021Z,9.60
2023-01-27T06:32:37.918Z,9.90
2023-01-27T06:33:14.866Z,10.40
2023-01-27T06:33:48.831Z,9.80
2023-01-27T06:34:29.839Z,9.80
2023-01-27T06:35:04.447Z,9.90
2023-01-27T06:35:39.919Z,10.70
2023-01-27T06:36:16.507Z,9.60
2023-01-27T06:37:00.435Z,9.30
2023-01-27T06:37:40.330Z,9.70
2023-01-27T06:38:15.774Z,9.50
2023-01-27T06:38:50.499Z,9.50
2023-01-27T06:39:27.166Z,9.90
2023-01-27T06:40:00.624Z,9.80
2023-01-27T06:40:42.240Z,9.20
2023-01-27T06:41:17.172Z,9.50
2023-01-27T06:41:57.672Z,9.50
2023-01-27T06:42:31.645Z,9.10
2023-01-27T06:43:05.227Z,9.90
2023-01-27T06:43:38.693Z,9.70
2023-01-27T06:44:12.248Z,9.60
2023-01-27T06:44:45.963Z,9.00
2023-01-27T06:45:24.441Z,8.90
2023-01-27T06:45:58.560Z,9.30
2023-01-27T06:46:32.327Z,9.10
2023-01-27T06:47:07.192Z,9.10
2023-01-27T06:47:41.405Z,9.30
2023-01-27T06:48:15.041Z,9.70
2023-01-27T06:48:48.624Z,9.30
2023-01-27T06:49:29.947Z,9.20
2023-01-27T06:50:57.849Z,8.70
2023-01-27T06:51:31.465Z,9.10
2023-01-27T06:52:05.140Z,9.00
2023-01-27T06:52:48.627Z,8.00
2023-01-27T06:53:27.788Z,8.10
2023-01-27T06:54:11.243Z,7.50
2023-01-27T06:54:44.875Z,8.50
2023-01-27T06:55:27.403Z,7.30
2023-01-27T06:56:08.738Z,7.80
2023-01-27T06:56:42.596Z,8.00
2023-01-27T06:57:16.804Z,7.40
2023-01-27T06:57:56.497Z,7.70
2023-01-27T06:58:30.224Z,6.90
2023-01-27T06:59:06.546Z,7.40
2023-01-27T06:59:41.162Z,7.40
2023-01-27T07:00:30.358Z,6.60
2023-01-27T07:01:07.652Z,7.10
2023-01-27T07:01:41.811Z,6.90
2023-01-27T07:03:58.961Z,7.60
2023-01-27T07:04:40.143Z,8.00
2023-01-27T07:05:16.940Z,7.10
2023-01-27T07:05:58.105Z,7.30
2023-01-27T07:06:31.751Z,8.30
2023-01-27T07:07:11.876Z,8.60
2023-01-27T07:07:46.698Z,8.60
2023-01-27T07:08:33.159Z,8.40
2023-01-27T07:09:11.695Z,8.40
2023-01-27T07:09:52.904Z,8.50
2023-01-27T07:10:32.992Z,8.70
2023-01-27T07:11:13.031Z,8.50
2023-01-27T07:11:52.258Z,8.80
2023-01-27T07:12:28.779Z,9.30
2023-01-27T07:13:12.174Z,8.80
2023-01-27T07:13:59.446Z,9.10
2023-01-27T07:14:36.857Z,8.90
2023-01-27T07:15:14.452Z,9.20
2023-01-27T07:15:53.168Z,9.00
2023-01-27T07:16:36.774Z,8.70
2023-01-27T07:17:17.928Z,9.10
2023-01-27T07:17:59.703Z,9.30
2023-01-27T07:18:34.924Z,9.10
2023-01-27T07:19:15.259Z,9.50
2023-01-27T07:21:09.804Z,8.10
2023-01-27T07:21:48.425Z,8.00
2023-01-27T07:22:29.978Z,9.00
2023-01-27T07:23:17.905Z,8.50
2023-01-27T07:23:59.141Z,8.90
2023-01-27T07:24:32.999Z,8.90
2023-01-27T07:25:07.109Z,8.70
2023-01-27T07:25:40.557Z,8.50
2023-01-27T07:26:24.501Z,9.20
2023-01-27T07:26:58.708Z,9.10
2023-01-27T07:27:38.272Z,8.80
2023-01-27T07:28:18.253Z,8.90
2023-01-27T07:28:58.803Z,8.70
2023-01-27T07:29:41.773Z,8.70
2023-01-27T07:30:29.208Z,8.60
2023-01-27T07:31:10.760Z,8.80
2023-01-27T07:31:47.158Z,8.90
2023-01-27T07:32:28.612Z,8.90
2023-01-27T07:33:13.302Z,8.80
2023-01-27T07:33:47.608Z,8.50
2023-01-27T07:34:37.959Z,7.00
2023-01-27T07:35:16.232Z,6.90
2023-01-27T07:36:09.737Z,7.80
2023-01-27T07:36:46.585Z,8.10
2023-01-27T07:37:44.199Z,8.30
2023-01-27T07:38:17.779Z,7.20
2023-01-27T07:38:58.925Z,6.40
2023-01-27T07:39:33.833Z,6.50
2023-01-27T07:40:29.466Z,6.80
2023-01-27T07:41:07.918Z,6.80
2023-01-27T07:41:43.852Z,6.90
2023-01-27T07:42:32.055Z,6.40
2023-01-27T07:43:11.955Z,5.60
2023-01-27T07:43:47.688Z,5.30
2023-01-27T07:44:41.994Z,5.60
2023-01-27T07:45:17.944Z,5.30
2023-01-27T07:46:02.789Z,5.90
2023-01-27T07:46:38.834Z,6.10
2023-01-27T07:47:24.326Z,6.20
2023-01-27T07:48:09.726Z,6.10
2023-01-27T07:48:45.974Z,6.00
2023-01-27T07:49:27.550Z,5.50
2023-01-27T07:50:02.641Z,5.80
2023-01-27T07:50:40.040Z,5.80
2023-01-27T07:51:27.569Z,6.00
2023-01-27T07:52:16.010Z,6.00
2023-01-27T07:53:01.230Z,5.90
2023-01-27T07:53:37.979Z,6.10
2023-01-27T07:54:12.122Z,6.00
2023-01-27T07:54:45.871Z,5.90
2023-01-27T07:55:30.310Z,6.10
2023-01-27T07:56:15.844Z,6.40
2023-01-27T07:57:16.633Z,5.70
2023-01-27T07:57:54.395Z,6.30
2023-01-27T07:58:33.110Z,6.30
2023-01-27T07:59:13.359Z,6.00
2023-01-27T07:59:59.139Z,5.90
2023-01-27T08:00:34.997Z,5.90
2023-01-27T08:01:13.371Z,5.50
2023-01-27T08:01:59.113Z,6.00
2023-01-27T08:02:32.924Z,6.20
2023-01-27T08:03:27.309Z,6.30
2023-01-27T08:04:04.626Z,6.20
2023-01-27T08:04:52.425Z,5.80
2023-01-27T08:05:36.375Z,5.90
2023-01-27T08:06:17.325Z,6.00
2023-01-27T08:07:04.595Z,5.80
2023-01-27T08:07:38.503Z,6.00
2023-01-27T08:08:15.413Z,6.10
2023-01-27T08:08:55.258Z,5.80
2023-01-27T08:09:28.910Z,6.40
2023-01-27T08:10:39.220Z,5.10
2023-01-27T08:11:32.479Z,5.20
2023-01-27T08:14:08.241Z,5.20
2023-01-27T08:15:40.546Z,3.90
2023-01-27T08:16:56.682Z,4.80
2023-01-27T08:21:32.025Z,4.40
2023-01-27T08:23:25.818Z,4.80
2023-01-27T08:26:25.438Z,4.60
2023-01-27T08:40:39.838Z,4.60
2023-01-27T08:41:28.240Z,4.50
2023-01-27T08:44:19.329Z,4.70
2023-01-27T08:46:37.947Z,4.30
2023-01-27T08:47:16.061Z,4.30
2023-01-27T08:48:15.361Z,5.00
2023-01-27T08:48:57.127Z,5.30
2023-01-27T08:49:39.628Z,5.10
2023-01-27T08:50:37.230Z,5.10
2023-01-27T08:51:37.468Z,5.20
2023-01-27T08:52:13.295Z,5.20
2023-01-27T08:53:22.564Z,5.30
2023-01-27T08:56:36.592Z,5.00
2023-01-27T08:57:15.120Z,4.50
2023-01-27T08:58:39.779Z,5.10
2023-01-27T08:59:35.875Z,5.90
2023-01-27T09:00:49.932Z,5.00
2023-01-27T09:01:48.569Z,5.20
2023-01-27T09:09:34.872Z,5.30
2023-01-27T09:10:41.361Z,5.60
2023-01-27T09:11:25.761Z,5.00
2023-01-27T09:12:38.543Z,5.40
2023-01-27T09:13:13.927Z,5.10
2023-01-27T09:14:01.023Z,5.10
2023-01-27T09:15:44.147Z,5.10
2023-01-27T09:17:02.493Z,5.70
2023-01-27T09:18:36.073Z,4.70
2023-01-27T09:19:41.600Z,5.20
2023-01-27T09:20:38.709Z,5.40
2023-01-27T09:21:33.468Z,5.20
2023-01-27T09:22:09.776Z,5.80
2023-01-27T09:23:12.603Z,6.00
2023-01-27T09:23:58.182Z,5.20
2023-01-27T09:26:05.860Z,5.80
2023-01-27T09:26:39.814Z,5.00
2023-01-27T09:28:02.881Z,5.10
2023-01-27T09:28:44.549Z,4.90
2023-01-27T09:30:30.132Z,5.20
2023-01-27T09:31:03.608Z,5.50
2023-01-27T09:31:37.039Z,5.40
2023-01-27T09:32:19.492Z,5.40
2023-01-27T09:32:52.986Z,5.40
2023-01-27T09:33:27.655Z,6.10
2023-01-27T09:34:01.312Z,6.50
2023-01-27T09:34:35.876Z,5.90
2023-01-27T09:35:09.759Z,6.00
2023-01-27T09:35:55.061Z,5.90
2023-01-27T09:36:29.117Z,6.20
2023-01-27T09:37:08.941Z,6.50
2023-01-27T09:37:53.048Z,6.00
2023-01-27T09:38:29.081Z,6.10
2023-01-27T09:39:09.314Z,6.20
2023-01-27T09:39:54.540Z,5.90
2023-01-27T09:40:36.077Z,5.60
2023-01-27T09:41:09.415Z,6.00
2023-01-27T09:42:07.703Z,6.00
2023-01-27T09:42:49.812Z,4.90
2023-01-27T09:44:14.264Z,5.30
2023-01-27T09:44:50.518Z,4.90
2023-01-27T09:45:42.486Z,5.20
2023-01-27T09:46:30.707Z,5.60
2023-01-27T09:47:19.414Z,5.10
2023-01-27T09:48:12.083Z,5.30
2023-01-27T09:48:58.733Z,5.70
2023-01-27T09:50:06.080Z,5.10
2023-01-27T09:51:04.042Z,5.40
2023-01-27T09:51:59.475Z,5.40
2023-01-27T09:53:03.127Z,5.00
2023-01-27T09:54:02.901Z,5.40
2023-01-27T09:55:18.108Z,5.50
2023-01-27T09:55:57.249Z,5.50
2023-01-27T09:56:38.523Z,5.80
2023-01-27T09:57:36.310Z,4.30
2023-01-27T09:58:28.476Z,5.70
2023-01-27T09:59:19.139Z,6.40
2023-01-27T10:00:06.875Z,5.20
2023-01-27T10:01:08.180Z,5.50
2023-01-27T10:01:56.333Z,5.50
2023-01-27T10:02:53.479Z,5.60
2023-01-27T10:03:51.805Z,6.20
2023-01-27T10:04:43.636Z,5.90
2023-01-27T10:05:32.940Z,5.50
2023-01-27T10:06:32.661Z,5.90
2023-01-27T10:07:38.621Z,6.50
2023-01-27T10:08:26.306Z,6.10
2023-01-27T10:09:15.001Z,6.80
2023-01-27T10:10:06.889Z,6.90
2023-01-27T10:11:02.701Z,7.40
2023-01-27T10:12:18.062Z,7.10
2023-01-27T10:13:34.076Z,7.20
2023-01-27T10:14:22.476Z,6.60
2023-01-27T10:15:16.754Z,6.80
2023-01-27T10:16:13.730Z,6.50
2023-01-27T10:17:05.770Z,6.00
2023-01-27T10:17:41.893Z,5.70
2023-01-27T10:18:24.293Z,6.60
2023-01-27T10:19:16.493Z,6.30
2023-01-27T10:20:12.527Z,6.70
2023-01-27T10:21:10.177Z,6.80
2023-01-27T10:21:51.981Z,4.70
2023-01-27T10:22:34.197Z,6.50
2023-01-27T10:23:30.116Z,6.60
2023-01-27T10:24:33.385Z,6.80
2023-01-27T10:25:15.334Z,6.70
2023-01-27T10:25:57.695Z,6.70
2023-01-27T10:26:48.596Z,7.10
2023-01-27T10:27:24.161Z,7.00
2023-01-27T10:28:02.091Z,7.90
2023-01-27T10:28:38.092Z,7.00
2023-01-27T10:29:36.263Z,7.00
2023-01-27T10:30:20.690Z,6.60
2023-01-27T10:30:57.029Z,7.10
2023-01-27T10:31:47.675Z,6.70
2023-01-27T10:32:50.722Z,7.10
2023-01-27T10:33:53.254Z,6.00
2023-01-27T10:34:41.857Z,6.20
2023-01-27T10:35:21.172Z,6.10
2023-01-27T10:36:00.346Z,6.80
2023-01-27T10:37:06.151Z,6.70
2023-01-27T10:37:56.896Z,5.20
2023-01-27T10:38:53.529Z,6.20
2023-01-27T10:39:36.931Z,6.10
2023-01-27T10:40:33.300Z,5.80
2023-01-27T10:41:29.748Z,6.50
2023-01-27T10:42:31.295Z,6.40
2023-01-27T10:43:17.497Z,6.60
2023-01-27T10:44:06.022Z,6.20
2023-01-27T10:45:04.153Z,6.40
2023-01-27T10:45:46.241Z,6.40
2023-01-27T10:46:52.165Z,6.60
2023-01-27T10:47:49.290Z,5.90
2023-01-27T10:48:46.816Z,6.40
2023-01-27T10:49:25.957Z,5.00
2023-01-27T10:50:06.582Z,6.70
2023-01-27T10:50:45.965Z,5.50
2023-01-27T10:51:30.291Z,7.20
2023-01-27T10:52:22.280Z,7.00
2023-01-27T10:53:14.711Z,7.20
2023-01-27T10:54:10.388Z,7.40
2023-01-27T10:54:58.526Z,7.40
2023-01-27T10:56:01.633Z,7.40
2023-01-27T10:56:43.677Z,6.60
2023-01-27T10:57:25.640Z,7.70
2023-01-27T10:58:20.545Z,7.50
2023-01-27T10:59:02.498Z,7.50
2023-01-27T11:00:18.329Z,7.60
2023-01-27T11:01:56.467Z,6.80
2023-01-27T11:02:51.226Z,7.20
2023-01-27T11:03:46.125Z,7.20
2023-01-27T11:04:45.068Z,5.00
2023-01-27T11:05:30.088Z,7.20
2023-01-27T11:06:19.622Z,6.70
2023-01-27T11:06:54.350Z,6.80
2023-01-27T11:07:29.616Z,6.70
2023-01-27T11:08:19.051Z,6.90
2023-01-27T11:08:56.800Z,6.40
2023-01-27T11:09:48.492Z,7.00
2023-01-27T11:10:25.687Z,7.30
2023-01-27T11:11:22.970Z,7.40
2023-01-27T11:12:04.731Z,7.20
2023-01-27T11:12:43.772Z,7.60
2023-01-27T11:13:18.281Z,7.60
2023-01-27T11:14:02.840Z,8.60
2023-01-27T11:14:51.176Z,7.40
2023-01-27T11:15:33.298Z,7.20
2023-01-27T11:16:15.261Z,7.60
2023-01-27T11:16:51.838Z,7.20
2023-01-27T11:17:37.164Z,7.30
2023-01-27T11:18:23.973Z,6.40
2023-01-27T11:19:00.923Z,6.80
2023-01-27T11:19:44.290Z,6.70
2023-01-27T11:20:27.662Z,7.30
2023-01-27T11:21:07.615Z,7.70
2023-01-27T11:21:41.994Z,6.80
2023-01-27T11:22:23.071Z,7.10
2023-01-27T11:23:20.799Z,7.50
2023-01-27T11:23:57.285Z,6.30
2023-01-27T11:24:41.656Z,7.70
2023-01-27T11:25:29.750Z,6.60
2023-01-27T11:26:27.239Z,6.90
2023-01-27T11:27:24.267Z,6.60
2023-01-27T11:28:15.668Z,6.10
2023-01-27T11:29:12.377Z,6.70
2023-01-27T11:29:56.497Z,6.60
2023-01-27T11:30:40.387Z,6.70
2023-01-27T11:31:30.194Z,6.50
2023-01-27T11:32:31.667Z,6.80
2023-01-27T11:34:14.141Z,5.80
2023-01-27T11:35:10.791Z,6.30
2023-01-27T11:35:44.189Z,6.50
2023-01-27T11:36:18.139Z,7.30
2023-01-27T11:36:51.861Z,6.50
2023-01-27T11:37:25.365Z,6.80
2023-01-27T11:38:14.482Z,7.40
2023-01-27T11:38:49.282Z,6.60
2023-01-27T11:39:23.294Z,7.00
2023-01-27T11:39:56.902Z,7.50
2023-01-27T11:40:39.450Z,7.30
2023-01-27T11:41:13.226Z,7.70
2023-01-27T11:41:51.234Z,7.30
2023-01-27T11:42:31.899Z,7.30
2023-01-27T11:43:05.707Z,7.70
2023-01-27T11:43:40.316Z,7.50
2023-01-27T11:44:22.793Z,8.00
2023-01-27T11:44:57.969Z,8.10
2023-01-27T11:45:36.173Z,8.00